Time;durP1;ratioP1;P1;durP2;ratioP2;P2;SDS_P1;SDS_P2;PMS_P1;PMS_P2;Temp;Humidity;BMP_temperature;BMP_pressure;BME280_temperature;BME280_humidity;BME280_pressure;Samples;Min_cycle;Max_cycle;Signal;HPM_P1;HPM_P2
2021/03/03 00:01:53;;;;;;;26.83;13.95;;;5.50;63.70;;;;;;5030845;28;20032;-68
2021/03/03 00:04:18;;;;;;;27.35;14.02;;;5.50;63.90;;;;;;5017105;28;20030;-67
2021/03/03 00:06:44;;;;;;;27.35;13.55;;;5.50;63.90;;;;;;5015596;28;20034;-68
2021/03/03 00:09:10;;;;;;;29.35;14.07;;;5.40;63.80;;;;;;5022319;28;20032;-68
2021/03/03 00:11:35;;;;;;;30.48;14.13;;;5.40;63.80;;;;;;5017469;28;20021;-68
2021/03/03 00:14:01;;;;;;;30.90;14.60;;;5.30;63.90;;;;;;5022111;28;20086;-67
2021/03/03 00:16:27;;;;;;;26.20;13.75;;;5.30;64.20;;;;;;5026293;28;20056;-68
2021/03/03 00:18:52;;;;;;;26.20;13.18;;;5.30;64.50;;;;;;5021310;28;20040;-68
2021/03/03 00:21:18;;;;;;;25.60;13.75;;;5.30;64.30;;;;;;5030261;28;20040;-68
2021/03/03 00:23:44;;;;;;;27.75;14.75;;;5.30;64.10;;;;;;5031651;28;20033;-68
2021/03/03 00:26:09;;;;;;;26.55;12.88;;;5.30;64.10;;;;;;5039598;28;20030;-67
2021/03/03 00:28:35;;;;;;;24.17;13.50;;;5.20;64.20;;;;;;5023079;28;20053;-68
2021/03/03 00:31:00;;;;;;;27.00;13.20;;;5.30;64.30;;;;;;5024604;28;20079;-68
2021/03/03 00:33:26;;;;;;;23.83;12.95;;;5.20;64.30;;;;;;5021495;28;20412;-67
2021/03/03 00:35:52;;;;;;;27.90;13.50;;;5.20;64.10;;;;;;5030002;28;20037;-68
2021/03/03 00:38:17;;;;;;;25.40;13.70;;;5.20;64.20;;;;;;5032547;28;20031;-68
2021/03/03 00:40:46;;;;;;;23.38;13.07;;;5.10;64.20;;;;;;5039124;28;20358;-68
2021/03/03 00:43:12;;;;;;;28.33;13.40;;;5.10;64.40;;;;;;5018719;28;20834;-67
2021/03/03 00:45:38;;;;;;;25.02;13.20;;;5.10;64.30;;;;;;5031248;28;20025;-68
2021/03/03 00:48:04;;;;;;;22.70;12.77;;;5.00;64.20;;;;;;5015540;28;20029;-68
2021/03/03 00:50:30;;;;;;;26.02;13.70;;;4.90;64.30;;;;;;5017088;28;20029;-68
2021/03/03 00:52:55;;;;;;;31.30;13.05;;;4.80;64.20;;;;;;5021823;28;20036;-68
2021/03/03 00:55:21;;;;;;;31.08;13.55;;;4.80;64.40;;;;;;5023134;28;20119;-67
2021/03/03 00:57:46;;;;;;;24.77;12.98;;;4.70;64.50;;;;;;5018289;28;20029;-67
2021/03/03 01:00:13;;;;;;;25.65;12.35;;;4.60;64.70;;;;;;5031413;28;20033;-68
2021/03/03 01:02:38;;;;;;;27.48;13.52;;;4.60;65.10;;;;;;5032135;28;20067;-68
2021/03/03 01:05:05;;;;;;;23.33;12.65;;;4.60;65.10;;;;;;5019781;28;20052;-68
2021/03/03 01:07:30;;;;;;;23.73;12.57;;;4.70;65.10;;;;;;5014410;28;20029;-69
2021/03/03 01:09:56;;;;;;;22.75;11.88;;;4.70;65.10;;;;;;5031165;28;20075;-68
2021/03/03 01:12:21;;;;;;;26.33;12.82;;;4.70;65.10;;;;;;5022864;28;20026;-68
2021/03/03 01:14:47;;;;;;;28.52;13.70;;;4.70;65.10;;;;;;5018987;28;20022;-68
2021/03/03 01:17:13;;;;;;;25.33;13.13;;;4.70;64.80;;;;;;5038832;28;20104;-68
2021/03/03 01:19:39;;;;;;;27.55;13.75;;;4.70;64.70;;;;;;5027445;28;20036;-68
2021/03/03 01:22:04;;;;;;;23.33;12.63;;;4.60;64.80;;;;;;5022965;28;20025;-68
2021/03/03 01:24:30;;;;;;;27.40;13.88;;;4.60;65.10;;;;;;5027974;28;20103;-68
2021/03/03 01:26:56;;;;;;;26.20;13.70;;;4.50;65.20;;;;;;5026339;28;20057;-68
2021/03/03 01:29:21;;;;;;;27.90;13.98;;;4.50;65.40;;;;;;5024239;28;20496;-68
2021/03/03 01:31:47;;;;;;;26.52;13.00;;;4.40;65.50;;;;;;5022329;28;20465;-67
2021/03/03 01:34:13;;;;;;;28.17;13.45;;;4.50;65.60;;;;;;5019721;28;20029;-68
2021/03/03 01:36:38;;;;;;;27.48;14.77;;;4.50;65.60;;;;;;5029024;28;20047;-68
2021/03/03 01:39:04;;;;;;;27.77;13.90;;;4.50;65.50;;;;;;5031504;28;20501;-68
2021/03/03 01:41:30;;;;;;;28.95;14.38;;;4.50;65.50;;;;;;5026765;28;20025;-68
2021/03/03 01:43:56;;;;;;;26.63;13.43;;;4.50;65.60;;;;;;5026103;28;20022;-68
2021/03/03 01:46:22;;;;;;;24.98;13.35;;;4.50;66.20;;;;;;5021911;28;20032;-68
2021/03/03 01:48:48;;;;;;;25.50;13.15;;;4.50;65.80;;;;;;5027177;28;20136;-68
2021/03/03 01:51:14;;;;;;;28.92;13.70;;;4.50;65.60;;;;;;5016909;28;20521;-68
2021/03/03 01:53:40;;;;;;;27.23;13.98;;;4.60;65.60;;;;;;5033023;28;20037;-68
2021/03/03 01:56:06;;;;;;;30.35;13.88;;;4.50;65.40;;;;;;5025286;28;20044;-67
2021/03/03 01:58:31;;;;;;;25.27;12.95;;;4.50;65.40;;;;;;5022557;28;20082;-68
2021/03/03 02:00:57;;;;;;;28.88;13.65;;;4.40;65.90;;;;;;5035831;28;20108;-68
2021/03/03 02:03:23;;;;;;;22.75;12.18;;;4.30;65.50;;;;;;5030780;28;20091;-68
2021/03/03 02:05:54;;;;;;;23.73;13.35;;;4.30;65.90;;;;;;5015952;28;20060;-67
2021/03/03 02:08:22;;;;;;;27.70;14.30;;;4.30;65.90;;;;;;5028048;28;20021;-67
2021/03/03 02:10:56;;;;;;;25.88;14.10;;;4.20;65.70;;;;;;5021392;28;20460;-68
2021/03/03 02:13:30;;;;;;;30.15;13.93;;;4.20;66.10;;;;;;5028988;28;20033;-68
2021/03/03 02:15:58;;;;;;;26.42;13.57;;;4.10;66.10;;;;;;5015812;28;20116;-68
2021/03/03 02:18:25;;;;;;;28.75;14.18;;;4.10;66.10;;;;;;5027503;28;20559;-68
2021/03/03 02:21:03;;;;;;;27.60;13.48;;;4.10;66.00;;;;;;5017017;28;20088;-67
2021/03/03 02:23:47;;;;;;;26.17;13.20;;;4.10;66.20;;;;;;5016419;28;20131;-67
2021/03/03 02:26:15;;;;;;;27.13;13.68;;;4.10;66.40;;;;;;5023701;28;20037;-67
2021/03/03 02:28:41;;;;;;;26.50;14.63;;;4.10;66.30;;;;;;5028678;28;20505;-68
2021/03/03 02:31:07;;;;;;;27.50;13.57;;;4.20;66.20;;;;;;5032442;28;20029;-68
2021/03/03 02:33:33;;;;;;;27.88;13.75;;;4.10;65.90;;;;;;5030581;28;20028;-67
2021/03/03 02:36:00;;;;;;;27.05;13.30;;;4.10;66.00;;;;;;5034833;28;20024;-67
2021/03/03 02:38:27;;;;;;;27.02;13.60;;;4.00;65.90;;;;;;5025008;28;20030;-67
2021/03/03 02:40:53;;;;;;;28.33;14.02;;;3.90;65.90;;;;;;5018985;28;20033;-68
2021/03/03 02:43:20;;;;;;;25.50;13.38;;;3.80;66.20;;;;;;5020682;28;20116;-67
2021/03/03 02:45:47;;;;;;;27.08;13.32;;;3.70;66.50;;;;;;5018742;28;20044;-67
2021/03/03 02:48:15;;;;;;;28.40;14.25;;;3.70;66.50;;;;;;5022429;28;20214;-67
2021/03/03 02:50:41;;;;;;;28.00;14.10;;;3.60;66.60;;;;;;5015314;28;20552;-68
2021/03/03 02:53:07;;;;;;;28.25;14.20;;;3.70;66.70;;;;;;5024360;28;20557;-67
2021/03/03 02:55:33;;;;;;;27.08;13.43;;;3.70;66.70;;;;;;5026139;28;20087;-67
2021/03/03 02:58:01;;;;;;;25.88;12.70;;;3.80;66.70;;;;;;5020976;28;20028;-69
2021/03/03 03:00:33;;;;;;;28.75;13.95;;;3.70;66.60;;;;;;5020676;28;20029;-67
2021/03/03 03:03:20;;;;;;;29.00;13.77;;;3.70;66.60;;;;;;5030278;28;20060;-67
2021/03/03 03:06:05;;;;;;;26.73;12.75;;;3.70;66.60;;;;;;5020374;28;20063;-67
2021/03/03 03:08:32;;;;;;;27.65;14.10;;;3.80;66.60;;;;;;5023732;28;20020;-68
2021/03/03 03:11:07;;;;;;;24.48;12.82;;;3.80;66.60;;;;;;5027232;28;20489;-67
2021/03/03 03:13:35;;;;;;;22.52;11.63;;;3.80;66.30;;;;;;5026513;28;20025;-67
2021/03/03 03:16:03;;;;;;;25.45;13.43;;;3.70;66.00;;;;;;5034184;28;20032;-68
2021/03/03 03:18:34;;;;;;;29.02;13.63;;;3.50;66.10;;;;;;5019668;28;20021;-67
2021/03/03 03:21:01;;;;;;;29.20;13.70;;;3.40;66.50;;;;;;5031102;28;20041;-68
2021/03/03 03:23:27;;;;;;;26.13;13.20;;;3.40;66.80;;;;;;5022337;28;20114;-68
2021/03/03 03:25:55;;;;;;;25.88;13.15;;;3.30;66.80;;;;;;5025485;28;20068;-68
2021/03/03 03:28:22;;;;;;;26.92;13.63;;;3.30;66.90;;;;;;5019129;28;20022;-68
2021/03/03 03:30:49;;;;;;;29.08;13.82;;;3.30;67.00;;;;;;5044012;28;20053;-68
2021/03/03 03:33:16;;;;;;;24.38;13.25;;;3.40;67.20;;;;;;5014981;28;20033;-67
2021/03/03 03:35:42;;;;;;;28.33;13.63;;;3.40;67.00;;;;;;5021269;28;20025;-68
2021/03/03 03:38:08;;;;;;;29.70;14.13;;;3.50;67.00;;;;;;5014816;28;20025;-67
2021/03/03 03:40:33;;;;;;;29.73;14.85;;;3.50;67.10;;;;;;5023898;28;20041;-68
2021/03/03 03:43:00;;;;;;;26.50;13.13;;;3.60;67.10;;;;;;5032918;28;20033;-68
2021/03/03 03:45:27;;;;;;;29.45;13.73;;;3.60;66.80;;;;;;5023539;28;20088;-67
2021/03/03 03:47:55;;;;;;;24.52;12.80;;;3.60;66.80;;;;;;5046039;28;20477;-67
2021/03/03 03:50:21;;;;;;;27.08;13.40;;;3.50;66.90;;;;;;5015674;28;20033;-67
2021/03/03 03:52:55;;;;;;;26.58;12.93;;;3.60;67.20;;;;;;5014287;28;20486;-68
2021/03/03 03:55:29;;;;;;;30.17;13.98;;;3.60;67.10;;;;;;5019466;28;20029;-67
2021/03/03 03:57:54;;;;;;;28.60;14.07;;;3.60;66.90;;;;;;5025719;28;20041;-67
2021/03/03 04:00:21;;;;;;;26.05;14.45;;;3.60;67.00;;;;;;5031048;28;20037;-67
2021/03/03 04:02:48;;;;;;;30.77;14.05;;;3.60;66.90;;;;;;5023502;28;20037;-67
2021/03/03 04:05:15;;;;;;;30.83;14.07;;;3.50;66.80;;;;;;5021251;28;20035;-68
2021/03/03 04:07:42;;;;;;;26.83;14.15;;;3.50;67.00;;;;;;5030605;28;20048;-67
2021/03/03 04:10:10;;;;;;;31.98;14.57;;;3.40;67.30;;;;;;5027174;28;20398;-67
2021/03/03 04:12:36;;;;;;;29.80;15.00;;;3.30;67.30;;;;;;5028965;28;20033;-67
2021/03/03 04:15:02;;;;;;;29.48;14.13;;;3.30;67.30;;;;;;5021459;28;20538;-68
2021/03/03 04:17:28;;;;;;;27.30;13.43;;;3.20;67.30;;;;;;5022541;28;20072;-67
2021/03/03 04:19:53;;;;;;;27.88;13.55;;;3.20;67.60;;;;;;5029400;28;20064;-68
2021/03/03 04:22:19;;;;;;;33.55;14.63;;;3.10;67.60;;;;;;5021797;28;20021;-67
2021/03/03 04:24:45;;;;;;;28.33;13.80;;;3.00;67.40;;;;;;5024903;28;20028;-68
2021/03/03 04:27:10;;;;;;;29.70;14.45;;;3.00;67.60;;;;;;5023031;28;20029;-67
2021/03/03 04:29:36;;;;;;;29.15;13.60;;;3.00;67.80;;;;;;5033178;28;20485;-67
2021/03/03 04:32:02;;;;;;;28.08;13.63;;;3.00;68.00;;;;;;5020544;28;20021;-68
2021/03/03 04:34:27;;;;;;;26.83;13.40;;;3.00;68.10;;;;;;5027656;28;20521;-68
2021/03/03 04:36:53;;;;;;;30.65;13.57;;;3.10;68.10;;;;;;5022517;28;20043;-68
2021/03/03 04:39:19;;;;;;;29.10;14.63;;;3.10;67.90;;;;;;5033531;28;20024;-67
2021/03/03 04:41:44;;;;;;;27.20;13.68;;;3.10;67.80;;;;;;5032055;28;20033;-68
2021/03/03 04:44:10;;;;;;;29.67;14.48;;;3.20;67.80;;;;;;5027409;28;20351;-67
2021/03/03 04:46:36;;;;;;;29.58;14.07;;;3.10;67.60;;;;;;5020304;28;20079;-67
2021/03/03 04:49:01;;;;;;;32.63;14.85;;;3.10;67.70;;;;;;5016325;28;20405;-67
2021/03/03 04:51:27;;;;;;;30.30;14.50;;;3.00;67.60;;;;;;5025536;28;20465;-67
2021/03/03 04:53:53;;;;;;;29.10;14.85;;;3.00;67.80;;;;;;5034386;28;20124;-68
2021/03/03 04:56:18;;;;;;;26.88;13.63;;;3.00;68.00;;;;;;5027950;28;20020;-67
2021/03/03 04:58:44;;;;;;;29.02;13.93;;;3.00;67.90;;;;;;5036763;28;20037;-68
2021/03/03 05:01:10;;;;;;;28.13;13.27;;;3.00;67.90;;;;;;5022964;28;20025;-67
2021/03/03 05:03:35;;;;;;;29.20;14.23;;;3.00;67.80;;;;;;5022937;28;20059;-68
2021/03/03 05:06:01;;;;;;;26.27;13.85;;;2.90;67.80;;;;;;5018094;28;20055;-68
2021/03/03 05:08:27;;;;;;;30.08;14.13;;;2.90;68.00;;;;;;5029745;28;20032;-67
2021/03/03 05:10:52;;;;;;;28.40;13.30;;;2.90;68.20;;;;;;5019580;28;20021;-68
2021/03/03 05:13:18;;;;;;;26.52;13.15;;;3.00;68.30;;;;;;5017181;28;20037;-68
2021/03/03 05:15:44;;;;;;;28.98;14.45;;;3.00;68.30;;;;;;5016712;28;20025;-68
2021/03/03 05:18:10;;;;;;;26.90;13.88;;;3.00;68.80;;;;;;5024698;28;20119;-67
2021/03/03 05:20:39;;;;;;;28.65;13.25;;;3.10;68.10;;;;;;5026847;28;20036;-68
2021/03/03 05:23:05;;;;;;;27.05;13.38;;;3.00;67.90;;;;;;5025034;28;20034;-67
2021/03/03 05:25:33;;;;;;;27.05;13.88;;;3.00;67.80;;;;;;5022729;28;20020;-67
2021/03/03 05:27:59;;;;;;;29.50;14.23;;;2.80;67.70;;;;;;5044842;28;20021;-67
2021/03/03 05:30:26;;;;;;;29.73;14.88;;;2.80;68.20;;;;;;5027046;28;20107;-69
2021/03/03 05:32:52;;;;;;;30.23;13.93;;;2.70;68.40;;;;;;5043939;28;20034;-69
2021/03/03 05:35:18;;;;;;;28.33;14.05;;;2.80;68.20;;;;;;5017875;28;20036;-68
2021/03/03 05:37:44;;;;;;;32.15;13.88;;;2.80;68.30;;;;;;5034610;28;20477;-68
2021/03/03 05:40:10;;;;;;;27.13;13.57;;;2.70;68.40;;;;;;5026317;28;20021;-68
2021/03/03 05:42:36;;;;;;;30.23;14.27;;;2.70;68.20;;;;;;5033466;28;20501;-68
2021/03/03 05:45:04;;;;;;;29.52;13.77;;;2.70;68.40;;;;;;5033489;28;20108;-67
2021/03/03 05:47:34;;;;;;;27.35;13.55;;;2.60;68.40;;;;;;5020807;28;20032;-67
2021/03/03 05:50:05;;;;;;;30.60;14.52;;;2.50;68.30;;;;;;5020110;28;20165;-67
2021/03/03 05:52:34;;;;;;;27.60;14.35;;;2.50;68.40;;;;;;5029077;28;20013;-68
2021/03/03 05:55:03;;;;;;;31.40;14.73;;;2.50;68.70;;;;;;5030699;28;20059;-67
2021/03/03 05:57:31;;;;;;;26.05;13.18;;;2.60;68.80;;;;;;5021394;28;20106;-67
2021/03/03 05:59:58;;;;;;;34.28;13.70;;;2.60;68.70;;;;;;5021246;28;20473;-67
2021/03/03 06:02:24;;;;;;;29.80;14.82;;;2.60;68.60;;;;;;5048845;23;20114;-68
2021/03/03 06:04:50;;;;;;;29.08;13.40;;;2.60;68.70;;;;;;5047249;28;20043;-67
2021/03/03 06:07:16;;;;;;;30.27;14.80;;;2.70;68.90;;;;;;5051655;28;20028;-67
2021/03/03 06:09:42;;;;;;;29.17;14.23;;;2.70;68.80;;;;;;5035617;28;20361;-67
2021/03/03 06:12:08;;;;;;;30.48;14.20;;;2.80;68.70;;;;;;5035901;28;20029;-68
2021/03/03 06:14:34;;;;;;;31.63;14.25;;;2.90;68.60;;;;;;5035275;28;20408;-70
2021/03/03 06:17:00;;;;;;;29.83;14.63;;;2.90;68.40;;;;;;5035504;28;20041;-67
2021/03/03 06:19:26;;;;;;;31.10;13.85;;;2.90;68.40;;;;;;5035937;28;20033;-68
2021/03/03 06:21:51;;;;;;;30.75;14.57;;;2.80;68.40;;;;;;5033533;28;20029;-68
2021/03/03 06:24:18;;;;;;;24.67;13.00;;;2.80;68.40;;;;;;5036485;28;20488;-71
2021/03/03 06:27:00;;;;;;;28.77;14.00;;;2.80;68.40;;;;;;5043282;28;20029;-68
2021/03/03 06:29:26;;;;;;;29.83;14.02;;;2.70;68.60;;;;;;5038237;28;20081;-69
2021/03/03 06:31:52;;;;;;;30.25;13.82;;;2.70;68.50;;;;;;5036395;28;20058;-69
2021/03/03 06:34:23;;;;;;;30.00;14.30;;;2.80;68.70;;;;;;5040079;28;20021;-68
2021/03/03 06:36:55;;;;;;;34.25;14.50;;;2.80;68.70;;;;;;5034730;28;20378;-68
2021/03/03 06:39:23;;;;;;;29.48;14.52;;;2.80;68.60;;;;;;5034803;28;20029;-68
2021/03/03 06:41:51;;;;;;;29.83;14.50;;;2.80;68.50;;;;;;5033986;28;20691;-69
2021/03/03 06:44:17;;;;;;;27.42;13.77;;;2.80;68.60;;;;;;5034315;28;20037;-69
2021/03/03 06:46:44;;;;;;;26.30;13.73;;;2.80;68.60;;;;;;5034722;28;20032;-68
2021/03/03 06:49:23;;;;;;;29.65;14.57;;;2.90;68.60;;;;;;5033876;28;20021;-67
2021/03/03 06:51:50;;;;;;;29.42;13.45;;;2.90;68.70;;;;;;5033890;28;20032;-67
2021/03/03 06:54:23;;;;;;;27.30;13.18;;;2.90;68.60;;;;;;5034091;28;20029;-67
2021/03/03 06:56:56;;;;;;;31.00;16.40;;;2.90;68.90;;;;;;5035082;28;20124;-68
2021/03/03 06:59:22;;;;;;;32.47;14.60;;;3.00;68.90;;;;;;5034852;28;20029;-68
2021/03/03 07:01:56;;;;;;;33.05;14.65;;;3.10;68.60;;;;;;5033810;28;20701;-67
2021/03/03 07:04:23;;;;;;;33.35;15.05;;;3.10;68.70;;;;;;5039094;28;20495;-67
2021/03/03 07:06:49;;;;;;;35.88;16.30;;;3.20;68.70;;;;;;5033844;28;20040;-67
2021/03/03 07:09:15;;;;;;;31.33;15.50;;;3.20;68.60;;;;;;5030076;28;20039;-67
2021/03/03 07:11:41;;;;;;;33.70;16.75;;;3.30;68.60;;;;;;5036166;28;20020;-67
2021/03/03 07:14:21;;;;;;;38.40;17.45;;;3.30;68.70;;;;;;5033476;28;20358;-67
2021/03/03 07:17:14;;;;;;;36.40;16.88;;;3.30;68.80;;;;;;5034396;28;20115;-67
2021/03/03 07:19:42;;;;;;;39.03;18.60;;;3.30;68.40;;;;;;5034034;28;20034;-67
2021/03/03 07:22:29;;;;;;;35.80;17.88;;;3.20;68.50;;;;;;5038616;28;20113;-67
2021/03/03 07:25:16;;;;;;;37.33;19.67;;;3.10;68.90;;;;;;5051419;28;20370;-67
2021/03/03 07:27:43;;;;;;;40.90;18.63;;;3.20;69.00;;;;;;5029368;28;20441;-67
2021/03/03 07:30:10;;;;;;;39.90;21.08;;;3.20;68.90;;;;;;5034379;28;20028;-67
2021/03/03 07:32:37;;;;;;;34.03;17.58;;;3.20;68.80;;;;;;5038673;28;20496;-67
2021/03/03 07:35:04;;;;;;;37.95;16.88;;;3.20;68.80;;;;;;5031002;28;20080;-67
2021/03/03 07:37:48;;;;;;;35.08;17.45;;;3.20;69.00;;;;;;5024347;28;20063;-67
2021/03/03 07:40:17;;;;;;;39.17;18.55;;;3.20;69.40;;;;;;5030903;28;20209;-67
2021/03/03 07:42:54;;;;;;;33.90;17.90;;;3.30;69.40;;;;;;5033846;28;20036;-68
2021/03/03 07:45:20;;;;;;;39.17;18.55;;;3.40;69.50;;;;;;5033233;28;20021;-66
2021/03/03 07:47:49;;;;;;;38.38;17.35;;;3.50;69.20;;;;;;5032632;28;20083;-66
2021/03/03 07:50:16;;;;;;;30.95;16.10;;;3.60;69.30;;;;;;5033515;28;20028;-66
2021/03/03 07:52:44;;;;;;;34.92;16.73;;;3.70;69.10;;;;;;5032099;28;20107;-66
2021/03/03 07:55:11;;;;;;;38.25;17.67;;;3.70;68.90;;;;;;5042770;28;20032;-66
2021/03/03 07:57:40;;;;;;;34.60;16.88;;;3.80;69.00;;;;;;5016746;28;20087;-67
2021/03/03 08:00:08;;;;;;;33.88;17.10;;;3.90;69.20;;;;;;5035151;28;20488;-67
2021/03/03 08:02:54;;;;;;;35.47;16.45;;;4.00;69.10;;;;;;5056373;28;20037;-65
2021/03/03 08:05:26;;;;;;;35.08;18.60;;;4.00;69.10;;;;;;5037579;28;20028;-66
2021/03/03 08:08:13;;;;;;;33.55;17.02;;;4.00;69.10;;;;;;5041359;28;20048;-68
2021/03/03 08:10:42;;;;;;;32.67;16.42;;;4.00;69.00;;;;;;5029095;28;20036;-67
2021/03/03 08:13:09;;;;;;;36.63;20.55;;;4.10;69.10;;;;;;5033061;28;20029;-66
2021/03/03 08:15:38;;;;;;;36.85;17.67;;;4.20;69.20;;;;;;5032649;28;20504;-67
2021/03/03 08:18:13;;;;;;;34.15;16.83;;;4.30;69.30;;;;;;5033221;28;20037;-67
2021/03/03 08:20:40;;;;;;;33.50;15.98;;;4.30;69.00;;;;;;5030618;28;20621;-68
2021/03/03 08:23:06;;;;;;;31.25;16.70;;;4.30;68.90;;;;;;5025746;28;20031;-67
2021/03/03 08:25:45;;;;;;;31.38;15.90;;;4.30;69.10;;;;;;5046367;28;20531;-66
2021/03/03 08:28:26;;;;;;;33.97;17.00;;;4.20;69.20;;;;;;5032869;28;20021;-65
2021/03/03 08:31:15;;;;;;;37.35;17.10;;;4.30;69.50;;;;;;5031857;28;20362;-68
2021/03/03 08:33:51;;;;;;;33.13;16.85;;;4.30;69.40;;;;;;5034568;28;20036;-66
2021/03/03 08:36:29;;;;;;;36.30;17.17;;;4.40;69.40;;;;;;5053444;28;20123;-66
2021/03/03 08:38:54;;;;;;;39.30;17.58;;;4.50;69.40;;;;;;5053565;28;20082;-64
2021/03/03 08:41:26;;;;;;;35.90;18.70;;;4.60;69.50;;;;;;5053495;28;20025;-65
2021/03/03 08:44:04;;;;;;;35.77;18.87;;;4.70;69.70;;;;;;5038830;28;20512;-66
2021/03/03 08:46:30;;;;;;;37.03;18.00;;;4.80;69.50;;;;;;5032755;28;20314;-65
2021/03/03 08:48:56;;;;;;;38.97;18.23;;;5.00;69.30;;;;;;5033657;28;20028;-65
2021/03/03 08:51:30;;;;;;;39.33;19.38;;;5.00;69.20;;;;;;5033798;28;20056;-65
2021/03/03 08:53:58;;;;;;;35.47;17.98;;;5.20;69.30;;;;;;5032636;28;20497;-66
2021/03/03 08:56:48;;;;;;;35.05;18.55;;;5.30;69.10;;;;;;5033766;28;20033;-66
2021/03/03 08:59:29;;;;;;;34.42;16.60;;;5.40;69.10;;;;;;5033925;28;20029;-65
2021/03/03 09:02:09;;;;;;;34.85;17.00;;;5.40;68.90;;;;;;5040201;28;20094;-66
2021/03/03 09:04:43;;;;;;;37.83;17.73;;;5.50;69.00;;;;;;5028598;28;20071;-66
2021/03/03 09:07:18;;;;;;;36.95;16.90;;;5.50;69.00;;;;;;5033165;28;20116;-67
2021/03/03 09:09:45;;;;;;;40.28;18.23;;;5.50;69.20;;;;;;5033716;28;20029;-66
2021/03/03 09:12:13;;;;;;;37.35;18.45;;;5.60;69.20;;;;;;5033141;28;20032;-66
2021/03/03 09:14:41;;;;;;;39.40;19.73;;;5.60;69.40;;;;;;5032952;28;20132;-66
2021/03/03 09:17:15;;;;;;;40.55;17.70;;;5.70;69.40;;;;;;5032647;28;20163;-67
2021/03/03 09:19:42;;;;;;;36.58;18.33;;;5.90;69.50;;;;;;5033524;28;20029;-64
2021/03/03 09:22:35;;;;;;;36.38;17.38;;;5.90;69.20;;;;;;5025034;28;20026;-65
2021/03/03 09:25:13;;;;;;;43.47;18.48;;;5.90;69.10;;;;;;5029248;28;20104;-65
2021/03/03 09:27:46;;;;;;;38.13;17.67;;;6.00;69.20;;;;;;5047395;28;20095;-66
2021/03/03 09:30:12;;;;;;;37.28;18.10;;;6.10;69.10;;;;;;5032960;28;20103;-66
2021/03/03 09:32:38;;;;;;;34.47;17.95;;;6.10;69.10;;;;;;5037981;28;20017;-65
2021/03/03 09:35:06;;;;;;;34.47;17.08;;;6.10;69.20;;;;;;5050194;28;20365;-65
2021/03/03 09:37:59;;;;;;;37.10;18.67;;;6.20;69.30;;;;;;5048084;28;20071;-67
2021/03/03 09:40:29;;;;;;;37.97;17.92;;;6.30;69.30;;;;;;5031582;28;20029;-67
2021/03/03 09:42:55;;;;;;;43.05;19.20;;;6.40;69.40;;;;;;5036562;28;20033;-66
2021/03/03 09:45:22;;;;;;;33.22;17.80;;;6.50;69.30;;;;;;5035432;28;20113;-66
2021/03/03 09:47:49;;;;;;;36.92;17.23;;;6.70;69.10;;;;;;5036017;28;20049;-67
2021/03/03 09:50:17;;;;;;;38.50;17.90;;;6.80;69.00;;;;;;5036359;28;20028;-67
2021/03/03 09:52:51;;;;;;;37.30;17.92;;;6.90;68.90;;;;;;5036128;28;20029;-67
2021/03/03 09:55:19;;;;;;;38.15;17.58;;;7.00;69.00;;;;;;5035429;28;20029;-67
2021/03/03 09:57:58;;;;;;;36.25;18.05;;;7.10;68.80;;;;;;5036005;28;20029;-67
2021/03/03 10:00:39;;;;;;;36.63;18.92;;;7.20;68.90;;;;;;5036015;28;20067;-67
2021/03/03 10:03:07;;;;;;;41.25;19.15;;;7.30;69.00;;;;;;5033263;28;20033;-68
2021/03/03 10:05:34;;;;;;;45.55;20.88;;;7.50;69.00;;;;;;5034921;28;20104;-67
2021/03/03 10:08:08;;;;;;;40.95;18.33;;;7.60;69.00;;;;;;5053975;28;20032;-67
2021/03/03 10:10:36;;;;;;;34.00;17.27;;;7.70;68.90;;;;;;5036014;28;20524;-68
2021/03/03 10:13:03;;;;;;;38.83;18.75;;;7.90;68.70;;;;;;5035881;28;20033;-67
2021/03/03 10:15:34;;;;;;;41.95;19.40;;;8.00;68.70;;;;;;5034953;28;20078;-67
2021/03/03 10:18:04;;;;;;;37.28;20.50;;;8.10;68.70;;;;;;5015645;28;20036;-67
2021/03/03 10:20:37;;;;;;;41.08;20.30;;;8.20;68.50;;;;;;5016071;28;20032;-68
2021/03/03 10:23:15;;;;;;;35.58;19.02;;;8.20;68.20;;;;;;5015790;28;20025;-67
2021/03/03 10:25:42;;;;;;;38.78;19.70;;;8.30;68.20;;;;;;5016842;28;20025;-68
2021/03/03 10:28:09;;;;;;;37.13;18.55;;;8.30;68.20;;;;;;5035513;28;20021;-67
2021/03/03 10:30:38;;;;;;;33.65;18.67;;;8.40;68.20;;;;;;5035336;28;20028;-67
2021/03/03 10:33:04;;;;;;;34.05;18.10;;;8.40;68.30;;;;;;5044143;28;20378;-67
2021/03/03 10:35:30;;;;;;;36.13;18.00;;;8.50;68.40;;;;;;5054882;28;20036;-66
2021/03/03 10:38:29;;;;;;;36.47;18.33;;;8.50;68.40;;;;;;5035308;28;20480;-67
2021/03/03 10:40:59;;;;;;;35.95;18.45;;;8.60;68.50;;;;;;4982479;28;20064;-66
2021/03/03 10:43:27;;;;;;;35.53;17.98;;;8.70;68.60;;;;;;5033905;28;20037;-67
2021/03/03 10:46:12;;;;;;;49.10;24.75;;;8.70;68.50;;;;;;5033599;28;20082;-66
2021/03/03 10:48:39;;;;;;;46.40;22.58;;;8.80;68.50;;;;;;5034626;28;20554;-67
2021/03/03 10:51:05;;;;;;;53.10;24.20;;;8.90;68.50;;;;;;5034126;28;20033;-67
2021/03/03 10:54:05;;;;;;;54.05;28.05;;;9.00;68.40;;;;;;5034769;28;20032;-66
2021/03/03 10:56:33;;;;;;;51.78;24.67;;;9.20;68.50;;;;;;4983963;28;20128;-67
2021/03/03 10:59:05;;;;;;;50.28;24.08;;;9.30;68.40;;;;;;5032657;28;20033;-66
2021/03/03 11:01:48;;;;;;;38.42;18.85;;;9.40;68.30;;;;;;5037141;28;20085;-67
2021/03/03 11:04:14;;;;;;;52.80;24.67;;;9.50;68.20;;;;;;5041182;28;20082;-67
2021/03/03 11:06:40;;;;;;;49.05;22.92;;;9.60;68.00;;;;;;5034985;28;20116;-67
2021/03/03 11:09:18;;;;;;;39.08;19.77;;;9.70;68.00;;;;;;5035163;28;20060;-67
2021/03/03 11:11:49;;;;;;;31.20;16.80;;;9.80;68.00;;;;;;5034480;28;20040;-68
2021/03/03 11:14:15;;;;;;;30.70;16.23;;;9.80;67.70;;;;;;5029916;28;20033;-67
2021/03/03 11:16:44;;;;;;;29.52;15.95;;;9.90;67.60;;;;;;5034742;28;20029;-66
2021/03/03 11:19:10;;;;;;;34.33;17.30;;;10.00;67.50;;;;;;5034899;28;20106;-67
2021/03/03 11:21:36;;;;;;;28.10;15.73;;;10.10;67.50;;;;;;5032740;28;20635;-67
2021/03/03 11:24:02;;;;;;;28.92;15.60;;;10.20;67.20;;;;;;5033721;28;20036;-67
2021/03/03 11:26:28;;;;;;;32.50;15.65;;;10.30;67.20;;;;;;5034547;28;20025;-67
2021/03/03 11:28:54;;;;;;;35.08;17.85;;;10.40;66.90;;;;;;5034256;28;20112;-67
2021/03/03 11:31:19;;;;;;;29.40;15.15;;;10.50;66.80;;;;;;5037459;28;20116;-67
2021/03/03 11:33:45;;;;;;;31.40;15.15;;;10.60;66.50;;;;;;5045855;28;20021;-67
2021/03/03 11:36:11;;;;;;;33.80;15.50;;;10.70;66.20;;;;;;5053801;28;20029;-67
2021/03/03 11:38:37;;;;;;;30.85;15.40;;;10.90;66.00;;;;;;5036973;28;20126;-67
2021/03/03 11:41:02;;;;;;;28.77;15.52;;;11.00;65.90;;;;;;5033958;28;20115;-67
2021/03/03 11:43:28;;;;;;;33.72;15.65;;;11.10;65.70;;;;;;5034019;28;20124;-67
2021/03/03 11:45:54;;;;;;;28.00;15.15;;;11.20;65.40;;;;;;5033693;28;20067;-67
2021/03/03 11:48:20;;;;;;;24.88;13.90;;;11.30;65.20;;;;;;5033732;28;20024;-67
2021/03/03 11:50:45;;;;;;;30.05;14.85;;;11.40;65.20;;;;;;5039210;28;20028;-66
2021/03/03 11:53:11;;;;;;;28.85;14.18;;;11.50;64.70;;;;;;5046501;28;20214;-65
2021/03/03 11:55:36;;;;;;;29.42;15.65;;;11.60;64.70;;;;;;5033262;28;20497;-66
2021/03/03 11:58:02;;;;;;;31.55;15.10;;;11.70;64.70;;;;;;5033366;28;20071;-65
2021/03/03 12:00:28;;;;;;;27.63;15.18;;;11.80;64.50;;;;;;5034283;28;20021;-66
2021/03/03 12:02:53;;;;;;;33.63;15.10;;;11.90;64.30;;;;;;5041231;28;20048;-66
2021/03/03 12:05:19;;;;;;;32.42;14.55;;;12.00;64.00;;;;;;5034339;22;20034;-66
2021/03/03 12:07:45;;;;;;;31.02;14.13;;;12.10;63.80;;;;;;5022648;28;20025;-65
2021/03/03 12:10:11;;;;;;;28.40;13.82;;;12.20;63.50;;;;;;5026658;28;20029;-66
2021/03/03 12:12:38;;;;;;;28.77;13.77;;;12.30;63.20;;;;;;5027554;28;20040;-65
2021/03/03 12:15:04;;;;;;;29.45;14.23;;;12.40;63.00;;;;;;5031574;28;20025;-66
2021/03/03 12:17:30;;;;;;;28.42;13.68;;;12.50;62.80;;;;;;5031149;28;20052;-66
2021/03/03 12:19:56;;;;;;;24.38;13.43;;;12.60;62.30;;;;;;5033869;28;20102;-67
2021/03/03 12:22:21;;;;;;;25.83;13.20;;;12.70;62.30;;;;;;5031702;28;20036;-67
2021/03/03 12:24:47;;;;;;;26.90;12.50;;;12.70;62.20;;;;;;5031147;28;20491;-68
2021/03/03 12:27:13;;;;;;;30.17;13.15;;;12.80;61.80;;;;;;5030805;28;20029;-67
2021/03/03 12:29:39;;;;;;;29.10;12.82;;;12.90;61.90;;;;;;5025697;28;20021;-68
2021/03/03 12:32:05;;;;;;;24.77;11.73;;;12.90;61.30;;;;;;5033420;28;20033;-68
2021/03/03 12:34:31;;;;;;;26.13;13.00;;;13.00;61.00;;;;;;5032920;28;20029;-67
2021/03/03 12:36:57;;;;;;;28.10;13.02;;;13.00;60.80;;;;;;5042210;28;20040;-68
2021/03/03 12:39:22;;;;;;;23.73;11.90;;;13.10;60.90;;;;;;5050485;28;20102;-66
2021/03/03 12:41:48;;;;;;;25.65;12.50;;;13.10;61.00;;;;;;5017571;28;20060;-66
2021/03/03 12:44:14;;;;;;;25.95;12.70;;;13.20;60.80;;;;;;5015729;28;20024;-67